Terminal Aerodrome Forecast
Issued by NWS

Home | Current Version | Previous Version | Text Only | Print | Product List | Glossary On
Versions: 1 2 3 4 5 6 7 8 9 10 11 12 13 14 15 16 17 18 19 20
000
FTUS45 KFGZ 181100
TAFPGA
TAF
KPGA 181139Z 1812/1912 VRB02KT P6SM FEW005 BKN080
      TEMPO 1812/1816 4SM BR SCT004 OVC029
     FM181700 VRB06KT P6SM SCT025 BKN045
     FM190100 VRB03KT P6SM FEW050=

USA.gov is the U.S. government's official web portal to all federal, state and local government web resources and services.